Time;durP1;ratioP1;P1;durP2;ratioP2;P2;SDS_P1;SDS_P2;PMS_P1;PMS_P2;Temp;Humidity;BMP_temperature;BMP_pressure;BME280_temperature;BME280_humidity;BME280_pressure;Samples;Min_cycle;Max_cycle;Signal;HPM_P1;HPM_P2
2021/04/26 00:01:41;;;;;;;5.85;2.40;;;7.70;71.60;;;;;;5111528;28;20384;-54
2021/04/26 00:04:07;;;;;;;8.20;2.70;;;7.50;73.30;;;;;;5108386;28;20433;-48
2021/04/26 00:06:32;;;;;;;7.13;2.70;;;7.40;76.50;;;;;;5112056;28;20407;-49
2021/04/26 00:08:58;;;;;;;7.30;2.70;;;7.40;78.10;;;;;;5111437;28;20992;-49
2021/04/26 00:11:24;;;;;;;8.30;2.70;;;7.30;80.40;;;;;;5112101;28;20380;-48
2021/04/26 00:13:49;;;;;;;8.82;2.70;;;7.30;82.10;;;;;;5110871;28;20400;-54
2021/04/26 00:16:15;;;;;;;7.50;2.73;;;7.30;82.50;;;;;;5111694;27;20943;-49
2021/04/26 00:18:41;;;;;;;7.85;3.00;;;7.40;81.40;;;;;;5109491;28;20389;-55
2021/04/26 00:21:06;;;;;;;7.70;3.00;;;7.40;81.00;;;;;;5111520;28;20711;-48
2021/04/26 00:23:32;;;;;;;6.43;2.42;;;7.60;81.30;;;;;;5111343;28;20510;-48
2021/04/26 00:25:58;;;;;;;7.60;2.90;;;7.50;81.00;;;;;;5110555;28;21212;-49
2021/04/26 00:28:23;;;;;;;8.30;2.50;;;7.50;81.50;;;;;;5111607;28;20863;-49
2021/04/26 00:30:49;;;;;;;6.50;2.93;;;7.50;81.50;;;;;;5110389;28;20384;-48
2021/04/26 00:33:15;;;;;;;9.85;2.70;;;7.50;82.20;;;;;;5111101;28;20835;-49
2021/04/26 00:35:40;;;;;;;6.60;2.23;;;7.50;82.30;;;;;;5111015;28;20815;-55
2021/04/26 00:38:06;;;;;;;6.80;2.40;;;7.60;82.80;;;;;;5111178;28;20460;-49
2021/04/26 00:40:32;;;;;;;8.80;2.70;;;7.60;83.20;;;;;;5111646;28;20402;-49
2021/04/26 00:42:57;;;;;;;6.75;2.58;;;7.60;83.60;;;;;;5109138;28;20520;-50
2021/04/26 00:45:25;;;;;;;6.95;2.80;;;7.60;84.30;;;;;;5111133;28;20375;-49
2021/04/26 00:47:51;;;;;;;6.23;2.70;;;7.50;84.40;;;;;;5110356;28;20491;-51
2021/04/26 00:50:24;;;;;;;7.67;3.63;;;9.20;87.00;;;;;;5111194;28;20448;-49
2021/04/26 00:52:51;;;;;;;7.22;3.42;;;7.50;85.70;;;;;;5110043;28;20368;-49
2021/04/26 00:55:24;;;;;;;7.43;2.65;;;7.50;86.40;;;;;;5110606;28;20379;-49
2021/04/26 00:57:50;;;;;;;6.28;2.70;;;7.40;86.50;;;;;;5110207;28;20372;-50
2021/04/26 01:00:17;;;;;;;7.20;3.07;;;7.50;87.50;;;;;;5110958;28;20369;-49
2021/04/26 01:02:42;;;;;;;8.05;3.20;;;7.50;88.00;;;;;;5110017;28;20430;-56
2021/04/26 01:05:14;;;;;;;6.72;3.05;;;7.50;88.10;;;;;;5110978;28;20416;-49
2021/04/26 01:07:41;;;;;;;8.32;3.30;;;7.50;88.20;;;;;;5107931;28;20491;-55
2021/04/26 01:10:09;;;;;;;8.80;3.20;;;7.40;89.60;;;;;;5109985;28;20862;-50
2021/04/26 01:12:55;;;;;;;6.72;2.92;;;7.40;90.20;;;;;;5110342;28;20468;-50
2021/04/26 01:15:51;;;;;;;8.80;4.10;;;7.30;90.50;;;;;;5107576;28;20898;-49
2021/04/26 01:18:30;;;;;;;8.93;3.58;;;7.20;91.30;;;;;;5103814;28;20400;-49
2021/04/26 01:21:33;;;;;;;7.50;3.25;;;7.20;91.70;;;;;;5109126;28;20744;-49
2021/04/26 01:24:17;;;;;;;7.18;3.38;;;7.20;92.10;;;;;;5108156;28;20387;-49
2021/04/26 01:26:46;;;;;;;10.10;3.60;;;7.20;92.70;;;;;;5107231;28;20430;-56
2021/04/26 01:29:45;;;;;;;11.60;4.00;;;7.20;93.00;;;;;;5108852;28;20469;-49
2021/04/26 01:32:34;;;;;;;10.07;3.90;;;7.10;93.70;;;;;;5109007;28;20455;-49
2021/04/26 01:35:02;;;;;;;9.07;3.58;;;7.00;94.50;;;;;;5106975;28;20446;-49
2021/04/26 01:37:30;;;;;;;10.23;3.88;;;7.00;94.80;;;;;;5109669;28;20375;-49
2021/04/26 01:39:57;;;;;;;8.73;4.03;;;7.00;95.40;;;;;;5109026;28;20364;-48
2021/04/26 01:42:23;;;;;;;8.40;3.60;;;7.00;95.50;;;;;;5110298;27;20471;-49
2021/04/26 01:44:49;;;;;;;7.20;3.92;;;7.00;95.90;;;;;;5109289;28;20380;-49
2021/04/26 01:47:16;;;;;;;10.10;4.50;;;6.90;96.20;;;;;;5109634;28;20441;-49
2021/04/26 01:49:42;;;;;;;10.90;4.10;;;6.90;97.10;;;;;;5108289;28;20396;-55
2021/04/26 01:52:10;;;;;;;7.57;4.30;;;7.10;97.00;;;;;;5109330;28;20387;-49
2021/04/26 01:54:36;;;;;;;11.38;4.00;;;6.90;97.50;;;;;;5109535;28;20377;-50
2021/04/26 01:57:03;;;;;;;11.45;4.30;;;6.90;97.90;;;;;;5108902;28;20411;-49
2021/04/26 01:59:29;;;;;;;12.80;5.00;;;6.90;98.20;;;;;;5109795;28;20492;-49
2021/04/26 02:01:58;;;;;;;15.70;6.70;;;6.90;98.70;;;;;;5108762;28;20746;-50
2021/04/26 02:04:34;;;;;;;8.65;4.32;;;6.80;98.90;;;;;;5110314;28;20493;-49
2021/04/26 02:07:01;;;;;;;10.50;4.40;;;6.80;99.60;;;;;;5106205;28;20493;-50
2021/04/26 02:09:31;;;;;;;9.75;4.35;;;6.80;99.90;;;;;;5109562;28;20882;-49
2021/04/26 02:11:58;;;;;;;9.60;4.70;;;6.80;99.90;;;;;;5109095;28;20502;-49
2021/04/26 02:14:26;;;;;;;10.00;4.80;;;6.80;99.80;;;;;;5109358;28;20730;-49
2021/04/26 02:16:53;;;;;;;10.17;4.73;;;6.70;99.80;;;;;;5108172;28;20380;-49
2021/04/26 02:19:21;;;;;;;9.50;4.60;;;6.80;99.90;;;;;;5109588;28;20377;-49
2021/04/26 02:21:47;;;;;;;10.98;5.00;;;6.60;99.90;;;;;;5108989;28;20848;-49
2021/04/26 02:24:12;;;;;;;9.83;4.67;;;6.50;99.90;;;;;;5108082;28;20388;-49
2021/04/26 02:26:38;;;;;;;11.35;5.00;;;6.40;99.90;;;;;;5109302;28;20376;-49
2021/04/26 02:29:04;;;;;;;8.13;4.55;;;6.40;99.90;;;;;;5108695;28;20439;-49
2021/04/26 02:31:33;;;;;;;11.25;5.25;;;6.30;99.90;;;;;;5108217;28;20718;-49
2021/04/26 02:34:09;;;;;;;8.80;4.43;;;6.40;99.90;;;;;;5108615;28;20376;-49
2021/04/26 02:36:39;;;;;;;10.20;4.70;;;6.30;99.90;;;;;;5109258;28;20377;-49
2021/04/26 02:39:07;;;;;;;9.40;4.65;;;6.20;99.90;;;;;;5106752;28;20433;-49
2021/04/26 02:41:36;;;;;;;11.23;5.40;;;6.20;99.90;;;;;;5109463;28;20485;-49
2021/04/26 02:44:06;;;;;;;10.43;4.90;;;6.20;99.90;;;;;;5106017;28;20377;-49
2021/04/26 02:46:34;;;;;;;10.50;4.75;;;6.10;99.90;;;;;;5108094;28;20461;-54
2021/04/26 02:49:02;;;;;;;11.20;5.45;;;6.00;99.90;;;;;;5108533;28;20494;-51
2021/04/26 02:51:32;;;;;;;10.55;5.13;;;6.00;99.90;;;;;;5112045;28;20388;-49
2021/04/26 02:54:01;;;;;;;11.40;5.18;;;6.00;99.90;;;;;;5112615;28;20372;-49
2021/04/26 02:56:27;;;;;;;9.57;5.15;;;6.00;99.90;;;;;;5112207;28;20380;-49
2021/04/26 02:58:56;;;;;;;10.05;4.97;;;6.10;99.90;;;;;;5112353;28;20372;-50
2021/04/26 03:01:22;;;;;;;8.90;5.10;;;6.10;99.90;;;;;;5109183;28;20384;-49
2021/04/26 03:03:49;;;;;;;10.15;4.97;;;6.20;99.90;;;;;;5111010;28;20372;-49
2021/04/26 03:06:15;;;;;;;10.50;5.00;;;6.10;99.90;;;;;;5113126;28;20441;-49
2021/04/26 03:08:41;;;;;;;11.05;5.00;;;6.10;99.90;;;;;;5109719;28;20396;-52
2021/04/26 03:11:10;;;;;;;12.10;5.30;;;6.20;99.90;;;;;;5112325;28;20453;-49
2021/04/26 03:13:38;;;;;;;11.83;5.57;;;6.20;99.90;;;;;;5112868;28;20416;-51
2021/04/26 03:16:04;;;;;;;8.57;4.93;;;6.20;99.90;;;;;;5111685;28;20404;-49
2021/04/26 03:18:30;;;;;;;10.33;5.10;;;6.20;99.90;;;;;;5112913;28;20441;-49
2021/04/26 03:20:57;;;;;;;13.70;5.40;;;6.20;99.90;;;;;;5111887;28;20391;-49
2021/04/26 03:23:27;;;;;;;10.23;4.95;;;6.10;99.90;;;;;;5112649;28;20372;-49
2021/04/26 03:25:57;;;;;;;11.55;6.25;;;6.20;99.90;;;;;;5112285;28;20467;-51
2021/04/26 03:28:24;;;;;;;8.87;5.03;;;6.20;99.90;;;;;;5108906;28;20789;-49
2021/04/26 03:30:50;;;;;;;8.88;4.80;;;6.10;99.90;;;;;;5110417;28;20380;-49
2021/04/26 03:33:18;;;;;;;10.20;5.30;;;6.10;99.90;;;;;;5111199;28;20472;-49
2021/04/26 03:35:44;;;;;;;12.20;5.50;;;6.00;99.90;;;;;;5112185;28;20842;-55
2021/04/26 03:38:16;;;;;;;10.65;5.47;;;6.00;99.90;;;;;;5110960;28;20862;-49
2021/04/26 03:40:42;;;;;;;9.32;5.07;;;6.00;99.90;;;;;;5109729;28;20369;-55
2021/04/26 03:43:08;;;;;;;10.18;5.13;;;6.00;99.90;;;;;;5110623;28;20381;-48
2021/04/26 03:45:34;;;;;;;13.60;5.87;;;6.00;99.90;;;;;;5112680;28;20757;-48
2021/04/26 03:48:00;;;;;;;15.68;5.40;;;5.90;99.90;;;;;;5109714;28;20408;-48
2021/04/26 03:50:26;;;;;;;11.15;4.90;;;5.90;99.90;;;;;;5112528;28;20425;-50
2021/04/26 03:52:53;;;;;;;10.20;5.20;;;5.90;99.90;;;;;;5111408;28;20376;-50
2021/04/26 03:55:22;;;;;;;9.57;5.40;;;5.90;99.90;;;;;;5112244;28;20373;-49
2021/04/26 03:57:49;;;;;;;10.35;4.78;;;5.90;99.90;;;;;;5110370;28;20384;-48
2021/04/26 04:00:17;;;;;;;9.50;5.45;;;5.70;99.90;;;;;;5111808;28;20452;-49
2021/04/26 04:02:42;;;;;;;12.93;5.10;;;5.90;99.90;;;;;;5109183;28;20383;-48
2021/04/26 04:05:09;;;;;;;11.55;5.20;;;5.90;99.90;;;;;;5111052;28;20851;-48
2021/04/26 04:07:36;;;;;;;17.20;6.03;;;6.00;99.90;;;;;;5111566;28;20400;-49
2021/04/26 04:10:04;;;;;;;11.52;5.30;;;6.00;99.90;;;;;;5108439;28;20375;-48
2021/04/26 04:12:30;;;;;;;14.10;6.30;;;6.00;99.90;;;;;;5110588;28;20862;-53
2021/04/26 04:14:56;;;;;;;14.25;5.93;;;5.90;99.90;;;;;;5111070;28;20391;-49
2021/04/26 04:17:21;;;;;;;11.10;5.47;;;5.90;99.90;;;;;;5111793;28;20738;-48
2021/04/26 04:19:47;;;;;;;13.25;5.80;;;5.90;99.90;;;;;;5111423;28;20711;-54
2021/04/26 04:22:13;;;;;;;11.23;5.70;;;5.90;99.90;;;;;;5111883;28;20843;-48
2021/04/26 04:24:38;;;;;;;12.30;5.22;;;6.80;99.90;;;;;;5111970;28;20364;-49
2021/04/26 04:27:04;;;;;;;14.80;6.00;;;5.80;99.90;;;;;;5110636;28;20380;-48
2021/04/26 04:29:30;;;;;;;10.63;6.13;;;5.80;99.90;;;;;;5111193;28;20760;-48
2021/04/26 04:31:55;;;;;;;13.00;5.45;;;5.90;99.90;;;;;;5109276;28;20381;-49
2021/04/26 04:34:22;;;;;;;11.87;5.80;;;5.90;99.90;;;;;;5104781;28;20399;-48
2021/04/26 04:36:47;;;;;;;12.10;5.72;;;5.80;99.90;;;;;;5110694;28;20368;-54
2021/04/26 04:39:13;;;;;;;15.35;6.35;;;5.70;99.90;;;;;;5111026;28;20708;-48
2021/04/26 04:41:39;;;;;;;10.47;5.40;;;5.60;99.90;;;;;;5111131;28;20376;-48
2021/04/26 04:44:04;;;;;;;14.65;6.50;;;5.70;99.90;;;;;;5110193;28;20526;-49
2021/04/26 04:46:31;;;;;;;12.95;5.90;;;5.80;99.90;;;;;;5111050;28;20395;-48
2021/04/26 04:48:56;;;;;;;12.20;5.50;;;5.90;99.90;;;;;;5109102;28;20434;-49
2021/04/26 04:51:23;;;;;;;12.05;5.70;;;6.00;99.90;;;;;;5110908;28;20838;-48
2021/04/26 04:53:49;;;;;;;12.50;5.30;;;6.50;99.90;;;;;;5109375;27;20376;-49
2021/04/26 04:56:15;;;;;;;15.30;5.83;;;7.00;99.90;;;;;;5111181;28;20455;-51
2021/04/26 04:58:41;;;;;;;11.95;5.70;;;7.40;99.90;;;;;;5109709;28;20391;-51
2021/04/26 05:01:07;;;;;;;12.88;5.53;;;7.70;99.90;;;;;;5108945;28;20526;-51
2021/04/26 05:03:32;;;;;;;12.07;5.70;;;8.10;99.10;;;;;;5111202;28;20858;-51
2021/04/26 05:05:58;;;;;;;13.23;6.15;;;8.40;97.40;;;;;;5108664;28;20720;-52
2021/04/26 05:08:24;;;;;;;15.90;5.13;;;8.30;97.30;;;;;;5109099;28;20413;-49
2021/04/26 05:10:49;;;;;;;12.80;5.45;;;7.90;97.20;;;;;;5109836;28;20765;-55
2021/04/26 05:13:15;;;;;;;10.80;4.93;;;7.70;97.50;;;;;;5109868;28;20911;-52
2021/04/26 05:15:41;;;;;;;12.75;5.70;;;7.90;97.40;;;;;;5109234;28;20520;-51
2021/04/26 05:18:08;;;;;;;12.82;5.95;;;8.00;96.60;;;;;;5100245;28;20400;-52
2021/04/26 05:20:39;;;;;;;11.85;5.88;;;8.40;96.20;;;;;;5099153;28;20381;-51
2021/04/26 05:23:05;;;;;;;12.27;5.30;;;9.20;94.20;;;;;;5106473;28;20430;-49
2021/04/26 05:25:30;;;;;;;10.65;4.85;;;10.00;91.60;;;;;;5110402;28;20372;-49
2021/04/26 05:27:56;;;;;;;11.70;5.50;;;10.90;89.50;;;;;;5109658;28;20485;-49
2021/04/26 05:30:22;;;;;;;12.37;5.53;;;12.30;81.00;;;;;;5107323;28;20453;-49
2021/04/26 05:32:48;;;;;;;10.63;5.05;;;13.60;71.10;;;;;;5108744;28;20388;-58
2021/04/26 05:35:13;;;;;;;10.02;5.10;;;13.50;61.70;;;;;;5109930;28;20368;-53
2021/04/26 05:37:39;;;;;;;9.80;5.40;;;13.90;59.90;;;;;;5110089;28;20916;-50
2021/04/26 05:40:05;;;;;;;10.30;5.60;;;13.80;59.40;;;;;;5109377;28;20887;-50
2021/04/26 05:42:31;;;;;;;11.43;5.80;;;13.40;59.50;;;;;;5108893;28;20499;-52
2021/04/26 05:44:57;;;;;;;11.55;6.10;;;14.00;58.70;;;;;;5109411;28;20426;-51
2021/04/26 05:47:22;;;;;;;14.00;5.87;;;14.90;56.50;;;;;;5110321;28;20412;-50
2021/04/26 05:49:48;;;;;;;10.70;5.77;;;15.30;54.20;;;;;;5108461;28;20380;-57
2021/04/26 05:52:14;;;;;;;12.53;6.10;;;15.50;53.40;;;;;;5104999;28;21015;-51
2021/04/26 05:54:39;;;;;;;13.05;5.63;;;15.40;52.70;;;;;;5096311;28;20406;-51
2021/04/26 05:57:05;;;;;;;9.88;5.00;;;15.70;52.10;;;;;;5106570;28;20392;-49
2021/04/26 05:59:31;;;;;;;12.60;5.60;;;16.70;50.50;;;;;;5109651;28;20455;-51
2021/04/26 06:01:57;;;;;;;12.10;5.82;;;16.80;48.60;;;;;;5102915;28;20928;-50
2021/04/26 06:04:22;;;;;;;15.30;5.57;;;16.80;48.90;;;;;;5089440;28;20378;-51
2021/04/26 06:06:48;;;;;;;10.57;5.53;;;16.00;48.60;;;;;;5089660;28;20374;-58
2021/04/26 06:09:13;;;;;;;9.00;5.20;;;16.20;49.00;;;;;;5088702;28;20416;-49
2021/04/26 06:11:40;;;;;;;10.15;5.20;;;16.90;47.50;;;;;;5103818;28;20388;-49
2021/04/26 06:14:06;;;;;;;8.68;5.20;;;16.70;47.40;;;;;;5109158;28;20368;-51
2021/04/26 06:16:31;;;;;;;10.65;6.00;;;16.40;47.40;;;;;;5109814;28;20444;-49
2021/04/26 06:18:57;;;;;;;9.10;5.20;;;16.50;47.40;;;;;;5108975;28;20435;-49
2021/04/26 06:21:23;;;;;;;9.60;5.50;;;17.20;46.70;;;;;;5109793;28;20384;-49
2021/04/26 06:23:48;;;;;;;10.50;5.20;;;17.60;45.60;;;;;;5110689;28;20835;-57
2021/04/26 06:26:14;;;;;;;9.80;5.60;;;18.70;44.30;;;;;;5113413;28;20788;-49
2021/04/26 06:28:39;;;;;;;10.50;5.97;;;18.50;42.50;;;;;;5113362;28;20400;-51
2021/04/26 06:31:05;;;;;;;9.33;5.13;;;18.00;43.20;;;;;;5112899;28;20377;-50
2021/04/26 06:33:31;;;;;;;9.80;5.10;;;17.50;44.10;;;;;;5113807;28;20376;-53
2021/04/26 06:35:57;;;;;;;10.25;5.22;;;16.60;44.50;;;;;;5113272;28;20376;-52
2021/04/26 06:38:22;;;;;;;9.40;5.60;;;16.00;45.90;;;;;;5113487;28;20496;-58
2021/04/26 06:40:48;;;;;;;9.77;5.13;;;16.60;46.20;;;;;;5113123;28;20496;-57
2021/04/26 06:43:15;;;;;;;11.23;5.40;;;17.20;45.20;;;;;;5111895;28;20470;-49
2021/04/26 06:45:42;;;;;;;8.93;5.27;;;18.00;43.60;;;;;;5113657;28;20369;-49
2021/04/26 06:48:08;;;;;;;11.25;5.50;;;17.60;43.70;;;;;;5112546;28;20553;-49
2021/04/26 06:50:35;;;;;;;9.85;5.10;;;17.30;44.30;;;;;;5113496;28;20704;-49
2021/04/26 06:53:01;;;;;;;8.40;5.27;;;17.90;42.90;;;;;;5112109;28;20373;-51
2021/04/26 06:55:27;;;;;;;11.18;5.40;;;18.70;42.80;;;;;;5113221;28;20881;-48
2021/04/26 06:57:53;;;;;;;10.73;5.50;;;19.10;41.50;;;;;;5112719;28;20379;-50
2021/04/26 07:00:21;;;;;;;9.32;5.50;;;19.70;40.50;;;;;;5113010;28;20376;-54
2021/04/26 07:02:48;;;;;;;9.82;5.63;;;20.00;40.10;;;;;;5098488;28;20374;-50
2021/04/26 07:05:14;;;;;;;10.07;5.40;;;20.20;39.60;;;;;;5090963;28;20883;-50
2021/04/26 07:07:40;;;;;;;12.05;6.18;;;19.80;40.40;;;;;;5093289;28;20401;-50
2021/04/26 07:10:06;;;;;;;11.40;5.50;;;20.00;40.10;;;;;;5105410;28;20839;-52
2021/04/26 07:12:32;;;;;;;9.23;5.93;;;18.50;38.20;;;;;;5113491;28;20387;-51
2021/04/26 07:14:59;;;;;;;11.50;6.00;;;20.00;39.40;;;;;;5111902;28;20404;-50
2021/04/26 07:17:24;;;;;;;10.00;5.70;;;20.30;39.40;;;;;;5112817;28;20422;-52
2021/04/26 07:19:50;;;;;;;11.50;6.47;;;20.80;38.70;;;;;;5110782;28;20475;-58
2021/04/26 07:22:16;;;;;;;10.25;5.32;;;20.70;39.10;;;;;;5112638;28;20486;-50
2021/04/26 07:24:43;;;;;;;9.85;5.70;;;20.80;38.10;;;;;;5112578;27;20803;-53
2021/04/26 07:27:08;;;;;;;9.05;6.03;;;21.20;38.40;;;;;;5112047;28;20462;-52
2021/04/26 07:29:34;;;;;;;11.57;6.30;;;21.10;37.60;;;;;;5112812;28;20814;-49
2021/04/26 07:32:00;;;;;;;10.70;6.40;;;21.00;38.50;;;;;;5111876;28;20368;-51
2021/04/26 07:34:25;;;;;;;9.52;5.30;;;20.80;37.80;;;;;;5110448;28;20875;-54
2021/04/26 07:36:51;;;;;;;9.88;5.20;;;20.80;38.00;;;;;;5102625;28;20371;-50
2021/04/26 07:39:19;;;;;;;11.77;5.90;;;21.10;37.60;;;;;;5106457;28;20597;-50
2021/04/26 07:41:45;;;;;;;10.52;6.38;;;20.70;38.10;;;;;;5111391;28;20467;-51
2021/04/26 07:44:11;;;;;;;10.95;5.93;;;20.60;38.00;;;;;;5091474;28;20370;-50
2021/04/26 07:46:36;;;;;;;8.70;5.80;;;21.00;37.60;;;;;;5088824;28;20473;-50
2021/04/26 07:49:02;;;;;;;10.98;5.90;;;21.30;37.30;;;;;;5090999;28;20404;-52
2021/04/26 07:51:28;;;;;;;10.70;5.50;;;21.00;38.10;;;;;;5091873;28;20710;-50
2021/04/26 07:53:54;;;;;;;11.10;6.67;;;21.00;37.40;;;;;;5092495;28;20736;-51
2021/04/26 07:56:19;;;;;;;9.40;5.70;;;20.60;37.90;;;;;;5090321;28;20390;-50
2021/04/26 07:58:45;;;;;;;9.85;6.47;;;21.40;37.70;;;;;;5091093;28;20455;-52
2021/04/26 08:01:11;;;;;;;10.52;5.60;;;22.10;36.60;;;;;;5089607;28;20807;-53
2021/04/26 08:03:37;;;;;;;11.00;5.95;;;22.10;36.40;;;;;;5111733;28;20376;-51
2021/04/26 08:06:04;;;;;;;10.80;5.87;;;22.40;36.60;;;;;;5096207;28;20370;-51
2021/04/26 08:08:33;;;;;;;10.60;6.50;;;22.60;35.80;;;;;;5090115;28;20764;-51
2021/04/26 08:10:58;;;;;;;9.95;6.20;;;22.80;35.40;;;;;;5089145;28;20745;-51
2021/04/26 08:13:26;;;;;;;11.32;6.30;;;22.90;35.20;;;;;;5090297;28;20386;-52
2021/04/26 08:15:54;;;;;;;10.20;5.80;;;22.90;35.60;;;;;;5090946;28;20366;-59
2021/04/26 08:18:21;;;;;;;10.55;6.30;;;23.30;35.40;;;;;;5090957;28;20643;-51
2021/04/26 08:20:47;;;;;;;9.40;5.97;;;23.20;35.00;;;;;;5090838;28;20374;-51
2021/04/26 08:23:12;;;;;;;11.57;6.22;;;23.30;34.90;;;;;;5089328;28;20876;-51
2021/04/26 08:25:38;;;;;;;11.00;6.15;;;22.90;35.20;;;;;;5091624;28;20855;-55
2021/04/26 08:28:04;;;;;;;11.90;6.20;;;21.90;35.90;;;;;;5104711;28;20401;-51
2021/04/26 08:30:31;;;;;;;11.30;6.20;;;22.50;35.90;;;;;;5091151;28;20375;-52
2021/04/26 08:32:56;;;;;;;10.43;6.25;;;23.00;34.70;;;;;;5090008;28;20481;-52
2021/04/26 08:35:22;;;;;;;9.73;5.40;;;23.70;35.10;;;;;;5089396;28;20900;-50
2021/04/26 08:37:48;;;;;;;12.80;6.23;;;24.60;33.70;;;;;;5090940;28;20384;-52
2021/04/26 08:40:13;;;;;;;9.50;5.80;;;23.20;34.00;;;;;;5090259;28;20393;-53
2021/04/26 08:42:39;;;;;;;11.73;6.68;;;22.30;35.30;;;;;;5090798;28;20382;-52
2021/04/26 08:45:07;;;;;;;11.75;6.00;;;22.70;35.60;;;;;;5089917;28;20393;-52
2021/04/26 08:47:37;;;;;;;10.67;6.20;;;22.60;35.50;;;;;;5089571;28;20483;-51
2021/04/26 08:50:05;;;;;;;10.68;6.30;;;21.70;36.20;;;;;;5089883;28;20450;-55
2021/04/26 08:52:30;;;;;;;9.43;6.00;;;22.10;36.40;;;;;;5090136;28;20385;-52
2021/04/26 08:54:57;;;;;;;14.57;6.80;;;22.60;36.20;;;;;;5089820;28;20737;-52
2021/04/26 08:57:23;;;;;;;9.95;5.95;;;22.80;35.50;;;;;;5088496;28;20504;-53
2021/04/26 08:59:49;;;;;;;11.10;5.93;;;22.90;35.50;;;;;;5090527;28;20477;-57
2021/04/26 09:02:15;;;;;;;12.85;6.55;;;25.80;35.70;;;;;;5099259;28;20901;-49
2021/04/26 09:04:50;;;;;;;10.27;6.00;;;24.40;33.80;;;;;;5103618;28;20445;-61
2021/04/26 09:07:17;;;;;;;10.70;6.50;;;23.00;35.00;;;;;;5094805;28;20374;-52
2021/04/26 09:09:49;;;;;;;10.57;6.32;;;22.80;34.80;;;;;;5088525;28;20781;-52
2021/04/26 09:12:31;;;;;;;9.68;6.80;;;23.90;34.80;;;;;;5088825;28;20825;-50
2021/04/26 09:15:04;;;;;;;11.03;6.50;;;24.10;33.40;;;;;;5089681;28;20710;-49
2021/04/26 09:17:44;;;;;;;8.75;5.65;;;24.50;34.00;;;;;;5087679;28;20422;-49
2021/04/26 09:20:17;;;;;;;11.20;5.90;;;24.60;33.70;;;;;;5089181;28;20485;-50
2021/04/26 09:22:46;;;;;;;10.57;6.18;;;26.00;32.50;;;;;;5089852;28;20392;-51
2021/04/26 09:25:32;;;;;;;9.40;6.10;;;25.90;31.70;;;;;;5089562;28;20393;-49
2021/04/26 09:28:03;;;;;;;11.53;6.23;;;25.30;32.30;;;;;;5088843;28;20394;-54
2021/04/26 09:30:42;;;;;;;11.48;6.32;;;23.80;34.00;;;;;;5102011;28;20444;-55
2021/04/26 09:33:15;;;;;;;11.38;6.00;;;24.10;34.00;;;;;;5088664;28;20428;-50
2021/04/26 09:35:41;;;;;;;13.60;6.63;;;24.80;33.50;;;;;;5088682;28;20446;-50
2021/04/26 09:38:28;;;;;;;10.53;6.80;;;24.20;33.00;;;;;;5087830;28;20826;-52
2021/04/26 09:41:13;;;;;;;10.13;6.50;;;23.90;34.00;;;;;;5089174;28;20440;-59
2021/04/26 09:43:40;;;;;;;11.18;6.78;;;25.40;33.00;;;;;;5089920;28;20848;-51
2021/04/26 09:46:07;;;;;;;12.32;6.57;;;24.50;32.70;;;;;;5088740;28;20421;-50
2021/04/26 09:48:33;;;;;;;10.10;6.18;;;24.20;33.20;;;;;;5089546;28;20398;-51
2021/04/26 09:51:05;;;;;;;12.40;6.70;;;23.80;33.60;;;;;;5088867;28;20443;-50
2021/04/26 09:53:41;;;;;;;10.15;6.20;;;23.80;33.50;;;;;;5090010;28;20370;-50
2021/04/26 09:56:17;;;;;;;11.57;6.88;;;24.30;33.30;;;;;;5088596;28;20367;-50
2021/04/26 09:58:45;;;;;;;11.88;6.30;;;24.50;33.20;;;;;;5092999;28;20748;-51
2021/04/26 10:01:11;;;;;;;10.38;6.40;;;24.60;32.40;;;;;;5107922;28;20373;-51
2021/04/26 10:03:37;;;;;;;11.25;6.53;;;24.90;32.90;;;;;;5089505;28;20428;-52
2021/04/26 10:06:03;;;;;;;14.23;6.27;;;24.80;32.30;;;;;;5088652;28;20386;-51
2021/04/26 10:08:29;;;;;;;10.63;6.10;;;24.90;32.40;;;;;;5088125;28;20480;-51
2021/04/26 10:10:56;;;;;;;10.55;5.90;;;23.50;30.50;;;;;;5088355;28;20378;-51
2021/04/26 10:13:23;;;;;;;11.40;6.07;;;25.10;31.50;;;;;;5089446;28;20451;-51
2021/04/26 10:16:01;;;;;;;9.13;6.05;;;24.30;31.30;;;;;;5088350;28;20374;-51
2021/04/26 10:18:58;;;;;;;8.48;5.50;;;24.10;32.50;;;;;;5089002;28;20496;-51
2021/04/26 10:21:25;;;;;;;10.60;6.10;;;23.70;32.40;;;;;;5088360;28;21989;-50
2021/04/26 10:23:54;;;;;;;10.70;6.63;;;24.00;32.80;;;;;;5089268;28;20385;-58
2021/04/26 10:26:49;;;;;;;9.85;6.22;;;23.20;32.80;;;;;;5089108;28;20404;-52
2021/04/26 10:29:26;;;;;;;10.98;6.45;;;22.00;33.80;;;;;;5095255;28;20759;-52
2021/04/26 10:32:08;;;;;;;9.25;6.20;;;21.80;34.20;;;;;;5089243;28;20401;-57
2021/04/26 10:34:39;;;;;;;12.67;5.77;;;21.30;34.90;;;;;;5088961;28;20389;-50
2021/04/26 10:37:18;;;;;;;11.65;7.07;;;21.00;33.90;;;;;;5087379;28;20386;-50
2021/04/26 10:39:59;;;;;;;11.77;6.18;;;20.40;34.40;;;;;;5088998;28;20386;-50
2021/04/26 10:42:31;;;;;;;13.35;5.95;;;20.30;35.40;;;;;;5088825;28;20378;-51
2021/04/26 10:44:57;;;;;;;12.77;6.18;;;19.70;36.90;;;;;;5088075;28;20431;-51
2021/04/26 10:47:32;;;;;;;11.10;6.38;;;19.40;36.90;;;;;;5088989;28;20410;-50
2021/04/26 10:50:04;;;;;;;11.23;6.90;;;19.30;37.50;;;;;;5088811;28;20389;-49
2021/04/26 10:52:29;;;;;;;12.95;6.50;;;19.30;38.20;;;;;;5095019;28;20428;-50
2021/04/26 10:55:32;;;;;;;10.50;6.70;;;19.80;38.10;;;;;;5107750;28;20803;-49
2021/04/26 10:58:00;;;;;;;9.82;6.80;;;19.60;37.60;;;;;;5107884;28;20728;-51
2021/04/26 11:02:58;;;;;;;11.18;6.32;;;19.40;38.60;;;;;;5094719;28;20862;-54
2021/04/26 11:05:29;;;;;;;10.27;6.22;;;19.90;38.30;;;;;;5088910;28;20378;-49
2021/04/26 11:08:07;;;;;;;10.60;6.93;;;19.80;37.50;;;;;;5087658;28;20864;-58
2021/04/26 11:10:37;;;;;;;11.67;6.30;;;19.80;38.20;;;;;;5089752;28;20602;-49
2021/04/26 11:13:34;;;;;;;11.23;6.82;;;19.60;37.70;;;;;;5091340;28;20883;-49
2021/04/26 11:16:07;;;;;;;9.97;6.83;;;19.60;38.20;;;;;;5091771;28;20382;-49
2021/04/26 11:18:35;;;;;;;10.50;6.22;;;19.50;38.00;;;;;;5091676;28;20398;-50
2021/04/26 11:21:01;;;;;;;10.05;6.20;;;19.40;38.10;;;;;;5110791;28;20902;-49
2021/04/26 11:23:41;;;;;;;11.35;6.22;;;18.80;37.50;;;;;;5112982;28;20373;-51
2021/04/26 11:26:12;;;;;;;12.30;6.13;;;18.70;38.30;;;;;;5112013;28;20783;-49
2021/04/26 11:29:11;;;;;;;11.32;6.68;;;18.90;38.80;;;;;;5108653;28;20434;-51
2021/04/26 11:31:45;;;;;;;11.50;6.70;;;18.80;38.80;;;;;;5101000;28;20442;-51
2021/04/26 11:34:19;;;;;;;10.77;6.80;;;18.70;39.00;;;;;;5110721;28;20843;-52
2021/04/26 11:37:06;;;;;;;14.32;7.47;;;18.80;38.90;;;;;;5109706;28;20822;-49
2021/04/26 11:39:33;;;;;;;11.07;6.50;;;19.10;38.60;;;;;;5111109;28;20404;-50
2021/04/26 11:42:00;;;;;;;13.33;6.20;;;19.30;37.90;;;;;;5109919;28;20393;-49
2021/04/26 11:44:39;;;;;;;11.13;5.57;;;19.10;37.70;;;;;;5112167;28;20378;-51
2021/04/26 11:47:08;;;;;;;10.05;5.45;;;18.80;36.80;;;;;;5110138;28;20855;-52
2021/04/26 11:49:43;;;;;;;10.15;5.55;;;18.00;35.20;;;;;;5112569;28;20432;-52
2021/04/26 11:52:15;;;;;;;10.85;6.20;;;17.90;37.40;;;;;;5111935;28;20373;-51
2021/04/26 11:54:46;;;;;;;8.65;5.90;;;18.10;37.00;;;;;;5111110;28;20384;-53
2021/04/26 11:57:19;;;;;;;10.68;5.60;;;18.40;36.70;;;;;;5110243;28;20404;-49
2021/04/26 11:59:55;;;;;;;10.83;5.57;;;18.90;36.60;;;;;;5112485;28;20415;-49
2021/04/26 12:02:38;;;;;;;10.43;5.43;;;18.70;35.50;;;;;;5110181;28;20755;-49
2021/04/26 12:05:07;;;;;;;11.80;5.57;;;18.80;35.50;;;;;;5111580;28;20851;-51
2021/04/26 12:07:33;;;;;;;10.70;5.53;;;18.70;36.40;;;;;;5111617;28;20761;-50
2021/04/26 12:10:01;;;;;;;8.75;5.22;;;18.90;36.40;;;;;;5111246;28;20364;-50
2021/04/26 12:12:29;;;;;;;9.20;4.70;;;19.20;35.20;;;;;;5110536;28;20888;-49
2021/04/26 12:14:57;;;;;;;10.07;4.95;;;19.30;34.70;;;;;;5111646;28;20376;-57
2021/04/26 12:17:34;;;;;;;9.23;4.97;;;19.20;34.60;;;;;;5111085;28;20951;-50
2021/04/26 12:20:01;;;;;;;9.48;4.93;;;19.40;33.60;;;;;;5111222;28;20388;-50
2021/04/26 12:22:34;;;;;;;9.45;5.00;;;19.20;32.70;;;;;;5111810;28;20448;-50
2021/04/26 12:25:03;;;;;;;11.00;5.93;;;19.20;33.20;;;;;;5110109;28;20487;-51
2021/04/26 12:27:30;;;;;;;9.77;5.40;;;18.70;33.50;;;;;;5111358;28;20444;-50
2021/04/26 12:30:17;;;;;;;11.02;5.20;;;18.60;34.60;;;;;;5109611;28;20871;-56
2021/04/26 12:32:44;;;;;;;9.90;5.05;;;18.70;35.10;;;;;;5111254;28;20954;-51
2021/04/26 12:35:17;;;;;;;11.18;5.32;;;18.60;34.70;;;;;;5109502;28;20383;-50
2021/04/26 12:37:46;;;;;;;10.73;5.60;;;18.10;36.00;;;;;;5110966;28;20376;-50
2021/04/26 12:40:31;;;;;;;8.50;5.10;;;18.60;36.50;;;;;;5110819;28;20417;-50
2021/04/26 12:42:56;;;;;;;9.98;5.63;;;18.60;35.80;;;;;;5110777;28;20433;-57
2021/04/26 12:45:26;;;;;;;9.20;5.60;;;18.70;34.90;;;;;;5111216;28;20388;-50
2021/04/26 12:47:58;;;;;;;9.63;5.60;;;18.60;35.80;;;;;;5110554;28;20447;-50
2021/04/26 12:50:30;;;;;;;12.15;5.20;;;19.00;35.30;;;;;;5110909;28;20403;-52
2021/04/26 12:53:28;;;;;;;7.55;4.05;;;19.00;34.30;;;;;;5110132;28;20916;-56
2021/04/26 12:56:03;;;;;;;11.67;4.57;;;19.00;32.40;;;;;;5081540;28;20392;-50
2021/04/26 12:58:36;;;;;;;8.85;5.03;;;19.20;33.90;;;;;;5111167;28;20376;-50